createdAt,value
2023-02-04T00:02:38.966Z,1.57
2023-02-04T00:08:00.441Z,1.87
2023-02-04T00:13:21.916Z,2.23
2023-02-04T00:18:43.426Z,2.70
2023-02-04T00:24:05.250Z,1.80
2023-02-04T00:29:29.475Z,2.87
2023-02-04T00:34:50.835Z,2.53
2023-02-04T00:40:12.704Z,0.87
2023-02-04T00:45:34.246Z,0.60
2023-02-04T00:50:55.716Z,0.90
2023-02-04T00:56:17.259Z,1.10
2023-02-04T01:01:39.032Z,1.00
2023-02-04T01:07:00.402Z,0.90
2023-02-04T01:12:23.114Z,0.93
2023-02-04T01:17:44.860Z,1.00
2023-02-04T01:23:08.008Z,1.40
2023-02-04T01:28:29.588Z,1.30
2023-02-04T01:33:53.226Z,1.53
2023-02-04T01:39:15.405Z,1.60
2023-02-04T01:44:36.718Z,1.63
2023-02-04T01:49:58.279Z,1.40
2023-02-04T01:55:24.459Z,1.63
2023-02-04T02:00:46.392Z,1.30
2023-02-04T02:06:09.825Z,1.53
2023-02-04T02:11:31.884Z,1.50
2023-02-04T02:16:54.271Z,0.97
2023-02-04T02:22:37.707Z,1.57
2023-02-04T02:28:00.668Z,1.97
2023-02-04T02:33:22.386Z,1.77
2023-02-04T02:38:44.487Z,1.80
2023-02-04T02:44:06.311Z,1.73
2023-02-04T02:49:32.444Z,1.60
2023-02-04T02:54:54.086Z,2.00
2023-02-04T03:00:31.311Z,1.50
2023-02-04T03:05:57.382Z,2.07
2023-02-04T03:11:18.717Z,1.10
2023-02-04T03:16:40.621Z,1.40
2023-02-04T03:22:02.358Z,1.60
2023-02-04T03:27:23.807Z,1.93
2023-02-04T03:32:45.792Z,1.80
2023-02-04T03:38:07.119Z,2.00
2023-02-04T03:43:28.724Z,1.80
2023-02-04T03:48:50.736Z,1.93
2023-02-04T03:54:12.405Z,2.07
2023-02-04T03:59:33.947Z,1.90
2023-02-04T04:04:55.452Z,1.80
2023-02-04T04:10:17.186Z,1.70
2023-02-04T04:15:38.711Z,1.40
2023-02-04T04:21:01.122Z,1.57
2023-02-04T04:26:22.830Z,1.60
2023-02-04T04:31:45.183Z,1.97
2023-02-04T04:37:06.559Z,1.47
2023-02-04T04:42:27.788Z,1.70
2023-02-04T04:47:49.317Z,1.70
2023-02-04T04:53:11.524Z,1.80
2023-02-04T04:58:33.165Z,2.07
2023-02-04T05:03:54.642Z,1.57
2023-02-04T05:09:17.647Z,1.83
2023-02-04T05:14:38.948Z,1.67
2023-02-04T05:20:00.188Z,1.60
2023-02-04T05:25:22.882Z,1.30
2023-02-04T05:30:44.441Z,1.50
2023-02-04T05:36:06.051Z,1.50
2023-02-04T05:41:27.677Z,1.40
2023-02-04T05:46:49.326Z,1.30
2023-02-04T05:52:10.931Z,1.50
2023-02-04T05:57:32.381Z,1.70
2023-02-04T06:02:53.976Z,1.67
2023-02-04T06:08:16.032Z,1.83
2023-02-04T06:13:38.148Z,1.50
2023-02-04T06:19:00.023Z,1.90
2023-02-04T06:24:21.557Z,1.80
2023-02-04T06:29:42.915Z,1.80
2023-02-04T06:35:04.237Z,1.53
2023-02-04T06:40:26.002Z,1.90
2023-02-04T06:45:47.565Z,1.60
2023-02-04T06:51:08.955Z,1.43
2023-02-04T06:56:30.493Z,1.70
2023-02-04T07:01:52.171Z,1.63
2023-02-04T07:07:13.850Z,1.70
2023-02-04T07:12:35.336Z,1.77
2023-02-04T07:17:57.132Z,1.73
2023-02-04T07:23:18.767Z,1.40
2023-02-04T07:28:41.454Z,2.40
2023-02-04T07:34:03.086Z,2.40
2023-02-04T07:39:24.666Z,2.50
2023-02-04T07:44:46.288Z,2.00
2023-02-04T07:50:08.079Z,2.03
2023-02-04T07:55:29.725Z,1.83
2023-02-04T08:00:51.514Z,1.70
2023-02-04T08:06:13.028Z,1.87
2023-02-04T08:11:34.702Z,2.20
2023-02-04T08:16:56.309Z,1.83
2023-02-04T08:22:17.804Z,2.20
2023-02-04T08:27:39.911Z,2.00
2023-02-04T08:33:01.111Z,2.10
2023-02-04T08:38:22.887Z,1.90
2023-02-04T08:43:44.284Z,2.20
2023-02-04T08:49:05.615Z,2.00
2023-02-04T08:54:27.197Z,2.23
2023-02-04T08:59:48.938Z,2.57
2023-02-04T09:05:10.596Z,2.80
2023-02-04T09:10:32.406Z,3.00
2023-02-04T09:15:54.411Z,2.73
2023-02-04T09:21:15.772Z,3.03
2023-02-04T09:26:37.420Z,2.73
2023-02-04T09:31:59.540Z,2.70
2023-02-04T09:37:20.733Z,2.67
2023-02-04T09:42:42.645Z,2.60
2023-02-04T09:48:05.831Z,2.77
2023-02-04T09:53:27.463Z,2.67
2023-02-04T09:58:49.207Z,3.07
2023-02-04T10:04:14.002Z,3.10
2023-02-04T10:09:35.342Z,3.00
2023-02-04T10:14:57.007Z,3.27
2023-02-04T10:20:21.277Z,3.20
2023-02-04T10:25:43.431Z,2.53
2023-02-04T10:31:05.288Z,3.00
2023-02-04T10:36:26.775Z,3.10
2023-02-04T10:41:50.046Z,3.40
2023-02-04T10:47:18.942Z,3.13
2023-02-04T10:52:43.641Z,3.30
2023-02-04T10:58:05.895Z,2.50
2023-02-04T11:03:31.002Z,2.60
2023-02-04T11:08:54.770Z,2.33
2023-02-04T11:14:31.767Z,1.90
2023-02-04T11:19:53.280Z,2.07
2023-02-04T11:25:35.031Z,1.60
2023-02-04T11:31:01.697Z,2.10
2023-02-04T11:36:23.261Z,2.33
2023-02-04T11:41:46.886Z,2.57
2023-02-04T11:47:09.783Z,2.00
2023-02-04T11:52:35.192Z,1.33
2023-02-04T11:57:57.617Z,1.97
2023-02-04T12:03:22.094Z,2.00
2023-02-04T12:08:43.821Z,2.00
2023-02-04T12:14:17.462Z,1.80
2023-02-04T12:19:38.993Z,1.80
2023-02-04T12:25:00.538Z,2.07
2023-02-04T12:30:23.254Z,2.20
2023-02-04T12:35:45.111Z,2.10
2023-02-04T12:41:06.478Z,1.73
2023-02-04T12:46:28.740Z,1.83
2023-02-04T12:51:51.530Z,1.93
2023-02-04T12:57:14.660Z,1.80
2023-02-04T13:02:36.100Z,1.70
2023-02-04T13:07:57.926Z,1.90
2023-02-04T13:13:20.249Z,1.77
2023-02-04T13:18:41.590Z,1.90
2023-02-04T13:24:02.911Z,1.87
2023-02-04T13:29:24.412Z,1.80
2023-02-04T13:34:46.195Z,1.90
2023-02-04T13:40:09.574Z,1.90
2023-02-04T13:45:31.550Z,2.00
2023-02-04T13:50:53.292Z,2.20
2023-02-04T13:56:14.810Z,1.43
2023-02-04T14:01:36.456Z,1.40
2023-02-04T14:06:58.104Z,1.20
2023-02-04T14:12:19.653Z,1.50
2023-02-04T14:17:41.243Z,1.90
2023-02-04T14:23:05.610Z,1.60
2023-02-04T14:28:26.920Z,2.37
2023-02-04T14:33:50.566Z,2.07
2023-02-04T14:39:11.713Z,1.77
2023-02-04T14:44:33.453Z,1.80
2023-02-04T14:49:54.950Z,1.70
2023-02-04T14:55:16.527Z,1.60
2023-02-04T15:00:38.671Z,1.43
2023-02-04T15:05:59.812Z,1.93
2023-02-04T15:11:21.415Z,1.70
2023-02-04T15:16:44.603Z,1.87
2023-02-04T15:22:06.017Z,1.30
2023-02-04T15:27:27.622Z,1.63
2023-02-04T15:32:49.125Z,1.93
2023-02-04T15:38:11.197Z,1.80
2023-02-04T15:43:32.636Z,1.97
2023-02-04T15:48:54.268Z,1.80
2023-02-04T15:54:15.859Z,2.30
2023-02-04T15:59:37.372Z,1.93
2023-02-04T16:04:58.821Z,2.30
2023-02-04T16:10:20.453Z,2.10
2023-02-04T16:15:42.080Z,3.60
2023-02-04T16:21:03.402Z,4.40
2023-02-04T16:26:24.958Z,4.40
2023-02-04T16:31:46.661Z,3.20
2023-02-04T16:37:08.261Z,3.63
2023-02-04T16:42:31.294Z,3.77
2023-02-04T16:47:52.650Z,4.17
2023-02-04T16:53:16.982Z,4.27
2023-02-04T16:58:40.038Z,4.17
2023-02-04T17:04:01.384Z,4.00
2023-02-04T17:09:22.876Z,4.97
2023-02-04T17:14:44.495Z,9.97
2023-02-04T17:20:06.039Z,11.00
2023-02-04T17:25:27.682Z,11.10
2023-02-04T17:30:48.996Z,5.17
2023-02-04T17:36:11.202Z,5.27
2023-02-04T17:41:32.737Z,4.63
2023-02-04T17:46:54.191Z,7.77
2023-02-04T17:52:15.598Z,13.03
2023-02-04T17:57:37.379Z,7.60
2023-02-04T18:02:59.340Z,5.60
2023-02-04T18:08:23.101Z,4.97
2023-02-04T18:13:44.569Z,4.70
2023-02-04T18:19:22.205Z,4.57
2023-02-04T18:24:46.236Z,4.60
2023-02-04T18:30:20.105Z,4.13
2023-02-04T18:35:44.185Z,3.60
2023-02-04T18:41:21.065Z,4.00
2023-02-04T18:46:46.977Z,4.10
2023-02-04T18:52:20.341Z,4.00
2023-02-04T18:57:41.680Z,5.10
2023-02-04T19:03:24.329Z,4.90
2023-02-04T19:08:46.464Z,8.13
2023-02-04T19:14:36.449Z,10.93
2023-02-04T19:20:20.957Z,10.37
2023-02-04T19:25:47.299Z,8.73
2023-02-04T19:31:09.272Z,8.37
2023-02-04T19:36:38.238Z,8.00
2023-02-04T19:41:59.510Z,8.40
2023-02-04T19:47:36.539Z,7.77
2023-02-04T19:53:11.319Z,8.27
2023-02-04T19:58:42.487Z,8.00
2023-02-04T20:04:13.342Z,7.77
2023-02-04T20:09:35.252Z,7.50
2023-02-04T20:15:11.221Z,7.97
2023-02-04T20:20:33.528Z,8.30
2023-02-04T20:25:57.148Z,8.37
2023-02-04T20:31:24.720Z,8.97
2023-02-04T20:36:46.950Z,8.00
2023-02-04T20:42:32.689Z,6.60
2023-02-04T20:48:00.032Z,6.57
2023-02-04T20:53:31.210Z,19.73
2023-02-04T20:59:10.247Z,16.07
2023-02-04T21:04:32.399Z,8.90
2023-02-04T21:09:56.891Z,6.43
2023-02-04T21:15:18.530Z,6.00
2023-02-04T21:20:40.189Z,6.30
2023-02-04T21:26:02.002Z,5.77
2023-02-04T21:31:23.458Z,4.97
2023-02-04T21:36:45.226Z,5.90
2023-02-04T21:42:13.594Z,5.10
2023-02-04T21:47:35.134Z,4.70
2023-02-04T21:52:56.959Z,5.27
2023-02-04T21:58:18.657Z,4.93
2023-02-04T22:03:40.039Z,5.23
2023-02-04T22:09:01.686Z,4.60
2023-02-04T22:14:23.072Z,5.30
2023-02-04T22:19:44.369Z,4.70
2023-02-04T22:25:06.043Z,4.87
2023-02-04T22:30:27.700Z,5.13
2023-02-04T22:35:49.281Z,5.17
2023-02-04T22:41:10.731Z,4.50
2023-02-04T22:46:32.429Z,3.53
2023-02-04T22:51:53.806Z,3.17
2023-02-04T22:57:15.346Z,2.97
2023-02-04T23:02:37.170Z,2.70
2023-02-04T23:07:58.748Z,2.70
2023-02-04T23:13:20.417Z,2.90
2023-02-04T23:18:41.755Z,2.30
2023-02-04T23:24:03.488Z,2.73
2023-02-04T23:29:24.862Z,2.70
2023-02-04T23:34:46.111Z,2.77
2023-02-04T23:40:08.157Z,2.63
2023-02-04T23:45:29.453Z,2.83
2023-02-04T23:50:51.526Z,2.73
2023-02-04T23:56:12.713Z,2.60
